createdAt,value
2023-01-11T00:00:57.286Z,4.80
2023-01-11T00:03:44.559Z,5.10
2023-01-11T00:06:31.981Z,4.80
2023-01-11T00:09:19.389Z,4.80
2023-01-11T00:12:08.206Z,4.80
2023-01-11T00:14:56.901Z,4.80
2023-01-11T00:17:43.952Z,4.80
2023-01-11T00:20:31.624Z,4.80
2023-01-11T00:23:18.689Z,4.80
2023-01-11T00:26:06.691Z,4.80
2023-01-11T00:28:53.810Z,4.80
2023-01-11T00:31:42.520Z,4.80
2023-01-11T00:34:29.797Z,4.70
2023-01-11T00:37:17.139Z,4.60
2023-01-11T00:40:05.029Z,4.60
2023-01-11T00:43:09.463Z,4.60
2023-01-11T00:46:13.232Z,4.60
2023-01-11T00:49:01.645Z,4.60
2023-01-11T00:51:48.782Z,4.50
2023-01-11T00:54:36.686Z,4.50
2023-01-11T00:57:24.061Z,4.50
2023-01-11T01:00:12.485Z,4.50
2023-01-11T01:02:59.863Z,4.50
2023-01-11T01:05:48.587Z,4.40
2023-01-11T01:08:36.553Z,4.40
2023-01-11T01:11:23.939Z,4.40
2023-01-11T01:14:28.650Z,4.40
2023-01-11T01:17:15.788Z,4.40
2023-01-11T01:20:03.314Z,4.40
2023-01-11T01:22:52.252Z,4.40
2023-01-11T01:25:39.665Z,4.40
2023-01-11T01:28:27.121Z,4.40
2023-01-11T01:31:14.961Z,4.40
2023-01-11T01:34:02.068Z,4.40
2023-01-11T01:36:49.466Z,4.40
2023-01-11T01:39:38.454Z,4.40
2023-01-11T01:42:26.122Z,4.40
2023-01-11T01:45:23.789Z,4.40
2023-01-11T01:48:15.580Z,4.40
2023-01-11T01:51:03.762Z,4.40
2023-01-11T01:53:54.917Z,4.40
2023-01-11T01:56:46.980Z,4.50
2023-01-11T01:59:34.906Z,4.50
2023-01-11T02:02:25.753Z,4.60
2023-01-11T02:05:15.582Z,4.60
2023-01-11T02:08:06.282Z,4.60
2023-01-11T02:10:54.676Z,4.60
2023-01-11T02:13:46.071Z,4.70
2023-01-11T02:16:34.440Z,4.70
2023-01-11T02:19:36.857Z,4.70
2023-01-11T02:23:03.206Z,4.70
2023-01-11T02:26:29.145Z,4.80
2023-01-11T02:29:30.054Z,4.90
2023-01-11T02:32:26.799Z,4.90
2023-01-11T02:35:21.570Z,4.90
2023-01-11T02:38:14.840Z,5.00
2023-01-11T02:41:09.209Z,5.00
2023-01-11T02:44:19.385Z,5.10
2023-01-11T02:47:18.308Z,5.10
2023-01-11T02:50:12.583Z,5.10
2023-01-11T02:53:05.660Z,5.20
2023-01-11T02:55:57.851Z,5.20
2023-01-11T02:58:49.113Z,5.30
2023-01-11T03:01:45.596Z,5.30
2023-01-11T03:04:35.756Z,5.30
2023-01-11T03:07:38.657Z,5.30
2023-01-11T03:10:38.286Z,5.30
2023-01-11T03:13:36.969Z,5.30
2023-01-11T03:16:32.003Z,5.30
2023-01-11T03:19:29.259Z,5.40
2023-01-11T03:22:26.345Z,5.40
2023-01-11T03:25:20.798Z,5.40
2023-01-11T03:28:16.298Z,5.40
2023-01-11T03:31:10.432Z,5.40
2023-01-11T03:34:02.721Z,5.40
2023-01-11T03:36:55.147Z,5.50
2023-01-11T03:39:46.685Z,5.50
2023-01-11T03:42:56.519Z,5.50
2023-01-11T03:45:48.919Z,5.60
2023-01-11T03:48:41.058Z,5.60
2023-01-11T03:51:31.571Z,5.60
2023-01-11T03:54:22.954Z,5.60
2023-01-11T03:57:17.140Z,5.60
2023-01-11T04:00:05.719Z,5.60
2023-01-11T04:02:53.873Z,5.60
2023-01-11T04:05:43.776Z,5.60
2023-01-11T04:08:32.117Z,5.70
2023-01-11T04:11:19.352Z,5.70
2023-01-11T04:14:08.309Z,5.70
2023-01-11T04:16:55.799Z,5.70
2023-01-11T04:19:43.206Z,5.70
2023-01-11T04:22:30.610Z,5.70
2023-01-11T04:25:18.045Z,5.70
2023-01-11T04:28:05.391Z,5.70
2023-01-11T04:30:54.503Z,5.60
2023-01-11T04:33:41.594Z,5.70
2023-01-11T04:36:31.086Z,5.70
2023-01-11T04:39:18.512Z,5.70
2023-01-11T04:42:21.529Z,5.70
2023-01-11T04:45:09.843Z,5.70
2023-01-11T04:47:59.009Z,5.70
2023-01-11T04:50:49.941Z,5.70
2023-01-11T04:53:37.468Z,5.70
2023-01-11T04:56:24.945Z,5.60
2023-01-11T04:59:12.366Z,5.60
2023-01-11T05:01:59.760Z,5.70
2023-01-11T05:04:48.611Z,5.70
2023-01-11T05:07:35.929Z,5.70
2023-01-11T05:10:23.202Z,5.70
2023-01-11T05:13:10.625Z,5.70
2023-01-11T05:15:58.029Z,5.70
2023-01-11T05:18:47.879Z,5.70
2023-01-11T05:21:39.387Z,5.70
2023-01-11T05:24:26.465Z,5.70
2023-01-11T05:27:13.913Z,5.70
2023-01-11T05:30:01.344Z,5.70
2023-01-11T05:32:48.827Z,5.70
2023-01-11T05:35:36.199Z,5.70
2023-01-11T05:38:24.971Z,5.70
2023-01-11T05:41:12.158Z,5.70
2023-01-11T05:44:16.835Z,5.70
2023-01-11T05:47:04.228Z,5.70
2023-01-11T05:49:51.446Z,5.80
2023-01-11T05:52:38.866Z,5.70
2023-01-11T05:55:27.560Z,5.80
2023-01-11T05:58:14.689Z,5.70
2023-01-11T06:01:02.222Z,5.80
2023-01-11T06:03:49.782Z,5.70
2023-01-11T06:06:37.193Z,5.70
2023-01-11T06:09:24.947Z,5.70
2023-01-11T06:12:13.358Z,5.70
2023-01-11T06:15:00.500Z,5.70
2023-01-11T06:17:48.046Z,5.70
2023-01-11T06:20:35.819Z,5.70
2023-01-11T06:23:24.322Z,5.70
2023-01-11T06:26:13.467Z,5.80
2023-01-11T06:29:02.059Z,5.70
2023-01-11T06:31:49.443Z,5.80
2023-01-11T06:34:36.935Z,5.80
2023-01-11T06:37:24.326Z,5.80
2023-01-11T06:40:13.118Z,5.90
2023-01-11T06:43:00.539Z,5.90
2023-01-11T06:45:49.665Z,5.90
2023-01-11T06:48:37.499Z,5.90
2023-01-11T06:51:24.976Z,5.90
2023-01-11T06:54:12.424Z,5.90
2023-01-11T06:57:00.018Z,5.90
2023-01-11T06:59:47.314Z,6.00
2023-01-11T07:02:36.202Z,6.00
2023-01-11T07:05:23.485Z,5.90
2023-01-11T07:08:10.997Z,5.90
2023-01-11T07:10:58.244Z,6.00
2023-01-11T07:13:45.623Z,6.00
2023-01-11T07:16:33.272Z,6.00
2023-01-11T07:19:21.984Z,6.00
2023-01-11T07:22:09.652Z,6.00
2023-01-11T07:24:57.085Z,6.00
2023-01-11T07:27:44.695Z,6.10
2023-01-11T07:30:44.556Z,6.10
2023-01-11T07:33:39.271Z,6.10
2023-01-11T07:36:29.867Z,6.10
2023-01-11T07:39:17.194Z,6.10
2023-01-11T07:42:22.321Z,6.10
2023-01-11T07:45:10.396Z,6.10
2023-01-11T07:47:57.767Z,6.10
2023-01-11T07:50:45.477Z,6.10
2023-01-11T07:53:34.467Z,6.10
2023-01-11T07:56:23.523Z,6.10
2023-01-11T07:59:10.864Z,6.20
2023-01-11T08:01:57.914Z,6.20
2023-01-11T08:04:45.999Z,6.20
2023-01-11T08:07:33.714Z,6.30
2023-01-11T08:10:22.190Z,6.30
2023-01-11T08:13:30.011Z,6.40
2023-01-11T08:16:17.120Z,6.40
2023-01-11T08:19:04.655Z,6.40
2023-01-11T08:21:52.601Z,6.50
2023-01-11T08:24:40.020Z,6.50
2023-01-11T08:27:28.805Z,6.50
2023-01-11T08:30:16.564Z,6.50
2023-01-11T08:33:04.850Z,6.60
2023-01-11T08:35:52.172Z,6.60
2023-01-11T08:38:39.734Z,6.60
2023-01-11T08:41:27.358Z,6.60
2023-01-11T08:44:22.310Z,6.70
2023-01-11T08:47:20.131Z,6.70
2023-01-11T08:50:08.660Z,6.70
2023-01-11T08:52:55.812Z,6.70
2023-01-11T08:55:44.604Z,6.70
2023-01-11T08:58:32.039Z,6.80
2023-01-11T09:01:20.693Z,6.80
2023-01-11T09:04:23.099Z,6.80
2023-01-11T09:07:10.823Z,6.80
2023-01-11T09:09:58.112Z,6.90
2023-01-11T09:12:45.615Z,6.90
2023-01-11T09:15:33.138Z,6.90
2023-01-11T09:18:21.896Z,6.90
2023-01-11T09:21:08.974Z,7.00
2023-01-11T09:23:56.475Z,7.00
2023-01-11T09:26:44.179Z,7.00
2023-01-11T09:29:31.583Z,7.10
2023-01-11T09:32:18.795Z,7.10
2023-01-11T09:35:09.498Z,7.10
2023-01-11T09:37:58.520Z,7.20
2023-01-11T09:40:51.761Z,7.20
2023-01-11T09:43:46.647Z,7.20
2023-01-11T09:46:36.962Z,7.30
2023-01-11T09:49:28.756Z,7.30
2023-01-11T09:52:28.705Z,7.30
2023-01-11T10:00:49.612Z,7.50
2023-01-11T10:04:04.004Z,7.30
2023-01-11T10:07:01.550Z,7.20
2023-01-11T10:18:26.026Z,7.10
2023-01-11T10:19:49.223Z,7.00
2023-01-11T10:22:42.523Z,7.00
2023-01-11T10:25:37.588Z,6.90
2023-01-11T10:28:31.909Z,6.90
2023-01-11T10:31:30.237Z,6.90
2023-01-11T10:34:41.941Z,6.90
2023-01-11T10:37:49.929Z,6.90
2023-01-11T10:40:59.849Z,6.90
2023-01-11T10:44:01.128Z,6.90
2023-01-11T10:46:51.711Z,6.90
2023-01-11T10:49:45.945Z,6.90
2023-01-11T10:52:41.294Z,6.90
2023-01-11T10:55:40.409Z,6.90
2023-01-11T10:58:47.754Z,6.90
2023-01-11T11:01:50.729Z,6.90
2023-01-11T11:04:53.627Z,6.90
2023-01-11T11:07:47.062Z,6.90
2023-01-11T11:10:43.837Z,6.90
2023-01-11T11:13:45.525Z,6.90
2023-01-11T11:16:47.512Z,6.90
2023-01-11T11:19:35.075Z,6.90
2023-01-11T11:22:23.414Z,6.90
2023-01-11T11:25:17.130Z,6.90
2023-01-11T11:28:07.986Z,6.90
2023-01-11T11:30:59.790Z,6.90
2023-01-11T11:33:47.935Z,6.90
2023-01-11T11:36:43.635Z,6.90
2023-01-11T11:39:32.582Z,6.90
2023-01-11T11:42:22.306Z,6.90
2023-01-11T11:45:18.443Z,6.90
2023-01-11T11:48:07.928Z,6.90
2023-01-11T11:50:57.113Z,7.00
2023-01-11T11:53:51.770Z,7.00
2023-01-11T11:56:39.290Z,7.00
2023-01-11T11:59:32.685Z,7.00
2023-01-11T12:02:27.114Z,7.00
2023-01-11T12:05:16.379Z,7.10
2023-01-11T12:08:04.784Z,7.10
2023-01-11T12:10:57.449Z,7.10
2023-01-11T12:13:46.470Z,7.20
2023-01-11T12:16:37.974Z,7.20
2023-01-11T12:19:34.590Z,7.10
2023-01-11T12:22:25.095Z,7.20
2023-01-11T12:25:22.591Z,7.20
2023-01-11T12:28:25.947Z,7.20
2023-01-11T12:31:18.169Z,7.30
2023-01-11T12:34:16.944Z,7.30
2023-01-11T12:37:16.455Z,7.30
2023-01-11T12:44:43.441Z,7.40
2023-01-11T12:47:59.510Z,7.40
2023-01-11T12:51:02.459Z,7.40
2023-01-11T12:54:03.528Z,7.40
2023-01-11T12:57:12.725Z,7.40
2023-01-11T13:00:23.368Z,7.40
2023-01-11T13:03:51.194Z,7.50
2023-01-11T13:06:44.391Z,7.50
2023-01-11T13:09:47.103Z,7.50
2023-01-11T13:12:42.338Z,7.50
2023-01-11T13:15:41.820Z,7.50
2023-01-11T13:18:36.561Z,7.50
2023-01-11T13:21:32.844Z,7.50
2023-01-11T13:24:26.285Z,7.60
2023-01-11T13:27:17.721Z,7.60
2023-01-11T13:30:05.973Z,7.60
2023-01-11T13:32:59.109Z,7.60
2023-01-11T13:35:51.882Z,7.60
2023-01-11T13:38:43.965Z,7.60
2023-01-11T13:41:36.035Z,7.60
2023-01-11T13:44:28.036Z,7.70
2023-01-11T13:47:20.253Z,7.70
2023-01-11T13:50:17.811Z,7.70
2023-01-11T13:53:15.998Z,7.70
2023-01-11T13:56:12.203Z,7.70
2023-01-11T13:59:04.468Z,7.70
2023-01-11T14:01:56.874Z,7.70
2023-01-11T14:04:50.067Z,7.70
2023-01-11T14:07:51.176Z,7.80
2023-01-11T14:10:50.545Z,7.80
2023-01-11T14:14:17.328Z,7.80
2023-01-11T14:17:26.074Z,7.80
2023-01-11T14:20:22.774Z,7.80
2023-01-11T14:23:13.920Z,7.90
2023-01-11T14:26:31.698Z,7.90
2023-01-11T14:29:35.261Z,7.90
2023-01-11T14:32:49.462Z,7.90
2023-01-11T14:36:08.880Z,7.90
2023-01-11T14:39:20.971Z,7.90
2023-01-11T14:42:51.339Z,7.90
2023-01-11T14:45:58.323Z,7.90
2023-01-11T14:48:52.085Z,8.00
2023-01-11T14:51:54.034Z,8.00
2023-01-11T14:54:45.258Z,8.00
2023-01-11T14:57:40.703Z,8.00
2023-01-11T15:01:01.669Z,8.00
2023-01-11T15:03:57.512Z,8.00
2023-01-11T15:06:55.500Z,8.00
2023-01-11T15:09:45.645Z,8.00
2023-01-11T15:12:38.233Z,8.00
2023-01-11T15:15:50.322Z,8.00
2023-01-11T15:18:44.738Z,8.00
2023-01-11T15:21:34.432Z,8.00
2023-01-11T15:24:25.001Z,8.00
2023-01-11T15:27:26.281Z,8.00
2023-01-11T15:30:37.262Z,8.10
2023-01-11T15:33:29.395Z,8.10
2023-01-11T15:36:16.676Z,8.10
2023-01-11T15:39:08.863Z,8.10
2023-01-11T15:42:12.291Z,8.10
2023-01-11T15:45:35.221Z,8.10
2023-01-11T15:48:33.006Z,8.10
2023-01-11T15:51:35.075Z,8.20
2023-01-11T15:54:48.298Z,8.10
2023-01-11T15:57:59.616Z,8.20
2023-01-11T16:01:24.110Z,8.20
2023-01-11T16:04:26.544Z,8.20
2023-01-11T16:07:22.012Z,8.20
2023-01-11T16:10:43.528Z,8.20
2023-01-11T16:13:41.775Z,8.20
2023-01-11T16:16:33.727Z,8.20
2023-01-11T16:19:23.392Z,8.20
2023-01-11T16:22:19.515Z,8.20
2023-01-11T16:25:07.844Z,8.20
2023-01-11T16:27:57.288Z,8.20
2023-01-11T16:30:46.561Z,8.30
2023-01-11T16:33:35.894Z,8.30
2023-01-11T16:36:24.415Z,8.30
2023-01-11T16:39:14.345Z,8.30
2023-01-11T16:42:05.697Z,8.30
2023-01-11T16:44:56.621Z,8.30
2023-01-11T16:47:44.108Z,8.30
2023-01-11T16:50:33.711Z,8.30
2023-01-11T16:53:21.427Z,8.30
2023-01-11T16:56:15.789Z,8.30
2023-01-11T16:59:19.032Z,8.30
2023-01-11T17:02:27.555Z,8.30
2023-01-11T17:05:19.983Z,8.30
2023-01-11T17:08:29.457Z,8.30
2023-01-11T17:11:30.468Z,8.30
2023-01-11T17:14:56.275Z,8.30
2023-01-11T17:17:43.466Z,8.30
2023-01-11T17:20:33.384Z,8.40
2023-01-11T17:23:22.112Z,8.40
2023-01-11T17:26:16.915Z,8.30
2023-01-11T17:29:05.471Z,8.30
2023-01-11T17:31:53.105Z,8.40
2023-01-11T17:34:40.764Z,8.40
2023-01-11T17:37:39.831Z,8.40
2023-01-11T17:40:31.229Z,8.40
2023-01-11T17:43:39.282Z,8.40
2023-01-11T17:46:27.417Z,8.40
2023-01-11T17:49:23.672Z,8.50
2023-01-11T17:52:17.733Z,8.50
2023-01-11T17:55:16.631Z,8.50
2023-01-11T17:58:19.221Z,8.50
2023-01-11T18:01:21.246Z,8.50
2023-01-11T18:04:19.230Z,8.50
2023-01-11T18:07:08.970Z,8.50
2023-01-11T18:10:02.993Z,8.50
2023-01-11T18:12:51.110Z,8.50
2023-01-11T18:15:40.077Z,8.40
2023-01-11T18:18:48.912Z,8.40
2023-01-11T18:21:41.868Z,8.40
2023-01-11T18:24:43.445Z,8.50
2023-01-11T18:27:32.669Z,8.60
2023-01-11T18:30:40.193Z,8.50
2023-01-11T18:33:30.426Z,8.50
2023-01-11T18:36:21.333Z,8.50
2023-01-11T18:39:11.689Z,8.50
2023-01-11T18:42:11.340Z,8.50
2023-01-11T18:44:58.872Z,8.50
2023-01-11T18:47:47.361Z,8.50
2023-01-11T18:50:34.509Z,8.50
2023-01-11T18:53:23.800Z,8.50
2023-01-11T18:56:11.483Z,8.50
2023-01-11T18:58:59.055Z,8.40
2023-01-11T19:01:56.558Z,8.40
2023-01-11T19:04:54.099Z,8.40
2023-01-11T19:07:41.738Z,8.40
2023-01-11T19:10:28.826Z,8.40
2023-01-11T19:13:19.109Z,8.30
2023-01-11T19:16:07.163Z,8.30
2023-01-11T19:18:55.367Z,8.30
2023-01-11T19:21:44.306Z,8.30
2023-01-11T19:24:32.154Z,8.30
2023-01-11T19:27:19.335Z,8.20
2023-01-11T19:30:08.200Z,8.30
2023-01-11T19:32:55.900Z,8.30
2023-01-11T19:35:44.296Z,8.20
2023-01-11T19:38:33.821Z,8.20
2023-01-11T19:41:21.306Z,8.20
2023-01-11T19:44:08.828Z,8.20
2023-01-11T19:47:10.470Z,8.20
2023-01-11T19:50:02.896Z,8.30
2023-01-11T19:52:53.571Z,8.10
2023-01-11T19:55:44.442Z,8.10
2023-01-11T19:58:33.311Z,8.00
2023-01-11T20:01:20.889Z,8.00
2023-01-11T20:04:08.264Z,8.00
2023-01-11T20:06:55.471Z,8.00
2023-01-11T20:09:43.168Z,8.00
2023-01-11T20:12:31.679Z,7.90
2023-01-11T20:15:19.053Z,7.90
2023-01-11T20:18:06.264Z,7.80
2023-01-11T20:20:56.903Z,7.90
2023-01-11T20:23:44.511Z,7.80
2023-01-11T20:26:33.929Z,7.80
2023-01-11T20:29:22.616Z,7.80
2023-01-11T20:32:31.092Z,7.70
2023-01-11T20:35:17.213Z,7.70
2023-01-11T20:38:04.584Z,7.70
2023-01-11T20:40:51.763Z,7.70
2023-01-11T20:43:40.222Z,7.70
2023-01-11T20:46:29.152Z,7.70
2023-01-11T20:49:17.114Z,7.70
2023-01-11T20:52:04.667Z,7.60
2023-01-11T20:54:52.129Z,7.60
2023-01-11T20:57:39.678Z,7.60
2023-01-11T21:00:29.190Z,7.50
2023-01-11T21:03:19.944Z,7.60
2023-01-11T21:06:09.319Z,7.50
2023-01-11T21:08:57.645Z,7.50
2023-01-11T21:11:52.356Z,7.40
2023-01-11T21:14:39.356Z,7.40
2023-01-11T21:17:26.805Z,7.40
2023-01-11T21:20:15.922Z,7.40
2023-01-11T21:23:03.234Z,7.40
2023-01-11T21:25:51.307Z,7.40
2023-01-11T21:28:39.084Z,7.30
2023-01-11T21:31:27.129Z,7.40
2023-01-11T21:34:14.956Z,7.30
2023-01-11T21:37:03.649Z,7.30
2023-01-11T21:39:51.273Z,7.30
2023-01-11T21:42:38.883Z,7.30
2023-01-11T21:45:26.250Z,7.30
2023-01-11T21:48:13.666Z,7.20
2023-01-11T21:51:01.514Z,7.20
2023-01-11T21:53:50.276Z,7.10
2023-01-11T21:56:38.410Z,7.10
2023-01-11T21:59:25.875Z,7.10
2023-01-11T22:02:13.659Z,7.00
2023-01-11T22:05:01.114Z,7.00
2023-01-11T22:07:48.480Z,7.00
2023-01-11T22:10:37.416Z,7.10
2023-01-11T22:13:24.929Z,7.00
2023-01-11T22:16:14.234Z,6.90
2023-01-11T22:19:02.150Z,6.90
2023-01-11T22:21:49.580Z,6.90
2023-01-11T22:24:37.080Z,6.90
2023-01-11T22:27:25.963Z,6.90
2023-01-11T22:30:13.888Z,6.80
2023-01-11T22:33:01.299Z,6.80
2023-01-11T22:35:55.334Z,6.80
2023-01-11T22:38:42.867Z,6.70
2023-01-11T22:41:30.496Z,6.60
2023-01-11T22:44:19.361Z,6.60
2023-01-11T22:47:06.795Z,6.50
2023-01-11T22:49:55.867Z,6.50
2023-01-11T22:52:42.986Z,6.50
2023-01-11T22:55:30.244Z,6.50
2023-01-11T22:58:17.619Z,6.50
2023-01-11T23:01:13.587Z,6.50
2023-01-11T23:04:01.708Z,6.50
2023-01-11T23:06:48.989Z,6.50
2023-01-11T23:09:36.528Z,6.50
2023-01-11T23:12:40.997Z,6.50
2023-01-11T23:15:28.175Z,6.40
2023-01-11T23:18:16.995Z,6.30
2023-01-11T23:21:04.876Z,6.40
2023-01-11T23:23:52.296Z,6.30
2023-01-11T23:26:39.916Z,6.30
2023-01-11T23:29:27.566Z,6.20
2023-01-11T23:32:15.194Z,6.20
2023-01-11T23:35:04.203Z,6.20
2023-01-11T23:37:54.719Z,6.10
2023-01-11T23:40:55.972Z,6.10
2023-01-11T23:43:43.213Z,6.10
2023-01-11T23:46:47.786Z,6.10
2023-01-11T23:49:35.346Z,6.00
2023-01-11T23:52:26.174Z,6.00
2023-01-11T23:55:13.905Z,6.00
2023-01-11T23:58:10.095Z,6.00
